sensor_id;sensor_type;location;lat;lon;timestamp;temperature;humidity
65078;DHT22;51672;51.230;-2.322;2022-08-21T00:02:19;14.90;99.60
65078;DHT22;51672;51.230;-2.322;2022-08-21T00:06:02;14.80;99.70
65078;DHT22;51672;51.230;-2.322;2022-08-21T00:09:44;14.80;99.80
65078;DHT22;51672;51.230;-2.322;2022-08-21T00:13:26;14.80;99.90
65078;DHT22;51672;51.230;-2.322;2022-08-21T00:17:09;14.70;99.90
65078;DHT22;51672;51.230;-2.322;2022-08-21T00:20:51;14.70;99.80
65078;DHT22;51672;51.230;-2.322;2022-08-21T00:24:33;14.60;99.90
65078;DHT22;51672;51.230;-2.322;2022-08-21T00:28:15;14.60;99.90
65078;DHT22;51672;51.230;-2.322;2022-08-21T00:31:57;14.60;99.90
65078;DHT22;51672;51.230;-2.322;2022-08-21T00:35:42;14.50;99.90
65078;DHT22;51672;51.230;-2.322;2022-08-21T00:39:24;14.50;99.90
65078;DHT22;51672;51.230;-2.322;2022-08-21T00:43:10;14.50;99.90
65078;DHT22;51672;51.230;-2.322;2022-08-21T00:46:52;14.50;99.90
65078;DHT22;51672;51.230;-2.322;2022-08-21T00:50:38;14.50;99.90
65078;DHT22;51672;51.230;-2.322;2022-08-21T00:54:25;14.40;99.90
65078;DHT22;51672;51.230;-2.322;2022-08-21T00:58:11;14.50;99.90
65078;DHT22;51672;51.230;-2.322;2022-08-21T01:01:54;14.40;99.90
65078;DHT22;51672;51.230;-2.322;2022-08-21T01:05:36;14.40;99.90
65078;DHT22;51672;51.230;-2.322;2022-08-21T01:09:19;14.40;99.90
65078;DHT22;51672;51.230;-2.322;2022-08-21T01:13:02;14.40;99.90
65078;DHT22;51672;51.230;-2.322;2022-08-21T01:16:46;14.40;99.90
65078;DHT22;51672;51.230;-2.322;2022-08-21T01:20:30;14.40;99.90
65078;DHT22;51672;51.230;-2.322;2022-08-21T01:24:14;14.40;99.90
65078;DHT22;51672;51.230;-2.322;2022-08-21T01:27:57;14.40;99.90
65078;DHT22;51672;51.230;-2.322;2022-08-21T01:31:40;14.40;99.90
65078;DHT22;51672;51.230;-2.322;2022-08-21T01:35:22;14.30;99.90
65078;DHT22;51672;51.230;-2.322;2022-08-21T01:39:05;14.30;99.90
65078;DHT22;51672;51.230;-2.322;2022-08-21T01:42:47;14.30;99.90
65078;DHT22;51672;51.230;-2.322;2022-08-21T01:46:30;14.20;99.90
65078;DHT22;51672;51.230;-2.322;2022-08-21T01:50:15;14.20;99.90
65078;DHT22;51672;51.230;-2.322;2022-08-21T01:53:57;14.20;99.90
65078;DHT22;51672;51.230;-2.322;2022-08-21T01:57:40;14.10;99.90
65078;DHT22;51672;51.230;-2.322;2022-08-21T02:01:22;14.10;99.90
65078;DHT22;51672;51.230;-2.322;2022-08-21T02:05:05;14.10;99.90
65078;DHT22;51672;51.230;-2.322;2022-08-21T02:08:47;14.00;99.90
65078;DHT22;51672;51.230;-2.322;2022-08-21T02:12:29;14.00;99.90
65078;DHT22;51672;51.230;-2.322;2022-08-21T02:16:12;14.00;99.90
65078;DHT22;51672;51.230;-2.322;2022-08-21T02:20:00;14.00;99.90
65078;DHT22;51672;51.230;-2.322;2022-08-21T02:23:42;14.00;99.90
65078;DHT22;51672;51.230;-2.322;2022-08-21T02:27:24;14.00;99.90
65078;DHT22;51672;51.230;-2.322;2022-08-21T02:31:08;14.00;99.90
65078;DHT22;51672;51.230;-2.322;2022-08-21T02:34:50;14.00;99.90
65078;DHT22;51672;51.230;-2.322;2022-08-21T02:38:33;14.10;99.90
65078;DHT22;51672;51.230;-2.322;2022-08-21T02:42:19;14.10;99.90
65078;DHT22;51672;51.230;-2.322;2022-08-21T02:46:03;14.10;99.90
65078;DHT22;51672;51.230;-2.322;2022-08-21T02:49:45;14.10;99.90
65078;DHT22;51672;51.230;-2.322;2022-08-21T02:53:28;14.20;99.90
65078;DHT22;51672;51.230;-2.322;2022-08-21T02:57:11;14.20;99.90
65078;DHT22;51672;51.230;-2.322;2022-08-21T03:00:53;14.20;99.90
65078;DHT22;51672;51.230;-2.322;2022-08-21T03:04:36;14.30;99.90
65078;DHT22;51672;51.230;-2.322;2022-08-21T03:08:18;14.40;99.90
65078;DHT22;51672;51.230;-2.322;2022-08-21T03:12:01;14.50;99.90
65078;DHT22;51672;51.230;-2.322;2022-08-21T03:15:43;14.60;99.90
65078;DHT22;51672;51.230;-2.322;2022-08-21T03:19:25;14.70;99.90
65078;DHT22;51672;51.230;-2.322;2022-08-21T03:23:08;14.80;99.90
65078;DHT22;51672;51.230;-2.322;2022-08-21T03:26:57;14.80;99.90
65078;DHT22;51672;51.230;-2.322;2022-08-21T03:30:41;14.90;99.90
65078;DHT22;51672;51.230;-2.322;2022-08-21T03:34:23;14.90;99.90
65078;DHT22;51672;51.230;-2.322;2022-08-21T03:38:06;14.80;99.90
65078;DHT22;51672;51.230;-2.322;2022-08-21T03:41:48;14.80;99.90
65078;DHT22;51672;51.230;-2.322;2022-08-21T03:45:30;14.60;99.90
65078;DHT22;51672;51.230;-2.322;2022-08-21T03:49:12;14.60;99.90
65078;DHT22;51672;51.230;-2.322;2022-08-21T03:52:55;14.50;99.90
65078;DHT22;51672;51.230;-2.322;2022-08-21T03:56:37;14.50;99.90
65078;DHT22;51672;51.230;-2.322;2022-08-21T04:00:21;14.40;99.90
65078;DHT22;51672;51.230;-2.322;2022-08-21T04:04:04;14.40;99.90
65078;DHT22;51672;51.230;-2.322;2022-08-21T04:07:46;14.40;99.90
65078;DHT22;51672;51.230;-2.322;2022-08-21T04:11:28;14.40;99.90
65078;DHT22;51672;51.230;-2.322;2022-08-21T04:15:10;14.40;99.90
65078;DHT22;51672;51.230;-2.322;2022-08-21T04:18:52;14.40;99.90
65078;DHT22;51672;51.230;-2.322;2022-08-21T04:22:34;14.40;99.90
65078;DHT22;51672;51.230;-2.322;2022-08-21T04:26:16;14.40;99.90
65078;DHT22;51672;51.230;-2.322;2022-08-21T04:29:58;14.40;99.90
65078;DHT22;51672;51.230;-2.322;2022-08-21T04:33:41;14.40;99.90
65078;DHT22;51672;51.230;-2.322;2022-08-21T04:37:23;14.40;99.90
65078;DHT22;51672;51.230;-2.322;2022-08-21T04:41:06;14.40;99.90
65078;DHT22;51672;51.230;-2.322;2022-08-21T04:44:48;14.40;99.90
65078;DHT22;51672;51.230;-2.322;2022-08-21T04:48:30;14.50;99.90
65078;DHT22;51672;51.230;-2.322;2022-08-21T04:52:15;14.40;99.90
65078;DHT22;51672;51.230;-2.322;2022-08-21T04:56:04;14.50;99.90
65078;DHT22;51672;51.230;-2.322;2022-08-21T04:59:50;14.50;99.90
65078;DHT22;51672;51.230;-2.322;2022-08-21T05:03:34;14.60;99.90
65078;DHT22;51672;51.230;-2.322;2022-08-21T05:07:25;14.60;99.90
65078;DHT22;51672;51.230;-2.322;2022-08-21T05:11:23;14.60;99.90
65078;DHT22;51672;51.230;-2.322;2022-08-21T05:15:06;14.70;99.90
65078;DHT22;51672;51.230;-2.322;2022-08-21T05:18:53;14.80;99.90
65078;DHT22;51672;51.230;-2.322;2022-08-21T05:22:35;14.80;99.90
65078;DHT22;51672;51.230;-2.322;2022-08-21T05:26:17;14.80;99.90
65078;DHT22;51672;51.230;-2.322;2022-08-21T05:30:00;14.80;99.90
65078;DHT22;51672;51.230;-2.322;2022-08-21T05:33:42;14.80;99.90
65078;DHT22;51672;51.230;-2.322;2022-08-21T05:37:24;14.80;99.90
65078;DHT22;51672;51.230;-2.322;2022-08-21T05:41:06;14.80;99.90
65078;DHT22;51672;51.230;-2.322;2022-08-21T05:44:49;14.80;99.90
65078;DHT22;51672;51.230;-2.322;2022-08-21T05:48:31;14.80;99.90
65078;DHT22;51672;51.230;-2.322;2022-08-21T05:52:21;14.90;99.90
65078;DHT22;51672;51.230;-2.322;2022-08-21T05:56:04;15.00;99.90
65078;DHT22;51672;51.230;-2.322;2022-08-21T05:59:46;15.10;99.90
65078;DHT22;51672;51.230;-2.322;2022-08-21T06:03:31;15.20;99.90
65078;DHT22;51672;51.230;-2.322;2022-08-21T06:07:50;15.20;99.90
65078;DHT22;51672;51.230;-2.322;2022-08-21T06:11:33;15.20;99.90
65078;DHT22;51672;51.230;-2.322;2022-08-21T06:19:35;15.40;99.90
65078;DHT22;51672;51.230;-2.322;2022-08-21T06:23:34;15.50;99.90
65078;DHT22;51672;51.230;-2.322;2022-08-21T06:27:16;15.50;99.90
65078;DHT22;51672;51.230;-2.322;2022-08-21T06:31:23;15.50;99.90
65078;DHT22;51672;51.230;-2.322;2022-08-21T06:35:06;15.50;99.90
65078;DHT22;51672;51.230;-2.322;2022-08-21T06:39:14;15.50;99.90
65078;DHT22;51672;51.230;-2.322;2022-08-21T06:47:40;15.60;99.90
65078;DHT22;51672;51.230;-2.322;2022-08-21T06:51:37;15.70;99.90
65078;DHT22;51672;51.230;-2.322;2022-08-21T06:55:27;15.80;99.90
65078;DHT22;51672;51.230;-2.322;2022-08-21T06:59:26;15.90;99.90
65078;DHT22;51672;51.230;-2.322;2022-08-21T07:11:46;16.40;99.30
65078;DHT22;51672;51.230;-2.322;2022-08-21T07:19:36;16.90;99.80
65078;DHT22;51672;51.230;-2.322;2022-08-21T07:28:09;17.70;98.40
65078;DHT22;51672;51.230;-2.322;2022-08-21T07:32:02;18.10;97.80
65078;DHT22;51672;51.230;-2.322;2022-08-21T07:36:02;18.30;97.00
65078;DHT22;51672;51.230;-2.322;2022-08-21T09:25:56;24.30;81.00
65078;DHT22;51672;51.230;-2.322;2022-08-21T09:29:53;24.90;80.50
65078;DHT22;51672;51.230;-2.322;2022-08-21T09:33:43;25.70;79.50
65078;DHT22;51672;51.230;-2.322;2022-08-21T09:41:38;27.80;69.30
65078;DHT22;51672;51.230;-2.322;2022-08-21T09:45:37;29.80;67.10
65078;DHT22;51672;51.230;-2.322;2022-08-21T09:49:34;31.80;59.80
65078;DHT22;51672;51.230;-2.322;2022-08-21T09:53:38;33.40;56.50
65078;DHT22;51672;51.230;-2.322;2022-08-21T10:02:31;35.40;45.20
65078;DHT22;51672;51.230;-2.322;2022-08-21T10:06:26;36.30;47.80
65078;DHT22;51672;51.230;-2.322;2022-08-21T10:11:05;36.90;45.90
65078;DHT22;51672;51.230;-2.322;2022-08-21T10:46:02;39.80;42.90
65078;DHT22;51672;51.230;-2.322;2022-08-21T11:18:07;30.60;49.40
65078;DHT22;51672;51.230;-2.322;2022-08-21T11:40:04;29.30;50.00
65078;DHT22;51672;51.230;-2.322;2022-08-21T11:53:01;28.90;48.00
65078;DHT22;51672;51.230;-2.322;2022-08-21T11:57:28;28.70;49.30
65078;DHT22;51672;51.230;-2.322;2022-08-21T12:01:28;28.70;49.40
65078;DHT22;51672;51.230;-2.322;2022-08-21T12:28:23;28.40;51.40
65078;DHT22;51672;51.230;-2.322;2022-08-21T12:42:05;29.10;50.40
65078;DHT22;51672;51.230;-2.322;2022-08-21T12:50:54;29.10;50.40
65078;DHT22;51672;51.230;-2.322;2022-08-21T12:59:22;29.10;45.60
65078;DHT22;51672;51.230;-2.322;2022-08-21T13:03:15;29.20;49.40
65078;DHT22;51672;51.230;-2.322;2022-08-21T13:07:16;29.40;48.80
65078;DHT22;51672;51.230;-2.322;2022-08-21T13:11:07;29.50;48.20
65078;DHT22;51672;51.230;-2.322;2022-08-21T13:24:39;29.60;49.70
65078;DHT22;51672;51.230;-2.322;2022-08-21T13:47:12;29.80;48.60
65078;DHT22;51672;51.230;-2.322;2022-08-21T13:55:39;29.40;45.70
65078;DHT22;51672;51.230;-2.322;2022-08-21T13:59:35;29.30;47.80
65078;DHT22;51672;51.230;-2.322;2022-08-21T14:03:36;29.20;48.30
65078;DHT22;51672;51.230;-2.322;2022-08-21T14:07:31;29.10;48.80
65078;DHT22;51672;51.230;-2.322;2022-08-21T14:30:02;28.40;48.60
65078;DHT22;51672;51.230;-2.322;2022-08-21T14:34:31;28.20;49.50
65078;DHT22;51672;51.230;-2.322;2022-08-21T14:43:03;28.00;50.00
65078;DHT22;51672;51.230;-2.322;2022-08-21T14:46:55;28.00;49.50
65078;DHT22;51672;51.230;-2.322;2022-08-21T14:55:53;28.20;50.70
65078;DHT22;51672;51.230;-2.322;2022-08-21T15:00:24;28.40;49.30
65078;DHT22;51672;51.230;-2.322;2022-08-21T15:04:22;28.30;49.70
65078;DHT22;51672;51.230;-2.322;2022-08-21T15:08:17;28.20;48.80
65078;DHT22;51672;51.230;-2.322;2022-08-21T15:12:16;28.00;49.60
65078;DHT22;51672;51.230;-2.322;2022-08-21T15:16:12;27.80;50.30
65078;DHT22;51672;51.230;-2.322;2022-08-21T15:20:11;27.70;51.10
65078;DHT22;51672;51.230;-2.322;2022-08-21T15:24:09;27.50;51.80
65078;DHT22;51672;51.230;-2.322;2022-08-21T15:37:01;27.20;52.90
65078;DHT22;51672;51.230;-2.322;2022-08-21T15:40:57;27.20;53.10
65078;DHT22;51672;51.230;-2.322;2022-08-21T15:53:20;27.00;54.00
65078;DHT22;51672;51.230;-2.322;2022-08-21T16:05:44;26.90;54.40
65078;DHT22;51672;51.230;-2.322;2022-08-21T16:14:12;26.90;54.80
65078;DHT22;51672;51.230;-2.322;2022-08-21T16:28:18;26.50;55.40
65078;DHT22;51672;51.230;-2.322;2022-08-21T16:41:17;26.30;56.00
65078;DHT22;51672;51.230;-2.322;2022-08-21T16:45:11;26.20;55.90
65078;DHT22;51672;51.230;-2.322;2022-08-21T17:06:41;25.20;57.70
65078;DHT22;51672;51.230;-2.322;2022-08-21T17:10:32;25.10;58.60
65078;DHT22;51672;51.230;-2.322;2022-08-21T17:18:56;24.70;58.80
65078;DHT22;51672;51.230;-2.322;2022-08-21T17:22:56;24.60;59.80
65078;DHT22;51672;51.230;-2.322;2022-08-21T17:26:51;24.40;59.80
65078;DHT22;51672;51.230;-2.322;2022-08-21T17:39:14;24.00;60.40
65078;DHT22;51672;51.230;-2.322;2022-08-21T17:43:44;23.90;61.50
65078;DHT22;51672;51.230;-2.322;2022-08-21T17:52:12;23.70;62.00
65078;DHT22;51672;51.230;-2.322;2022-08-21T18:19:14;22.90;62.30
65078;DHT22;51672;51.230;-2.322;2022-08-21T18:23:09;22.70;63.30
65078;DHT22;51672;51.230;-2.322;2022-08-21T18:41:10;22.20;63.40
65078;DHT22;51672;51.230;-2.322;2022-08-21T18:45:09;22.20;65.20
65078;DHT22;51672;51.230;-2.322;2022-08-21T18:49:03;22.10;65.10
65078;DHT22;51672;51.230;-2.322;2022-08-21T18:53:01;22.00;65.70
65078;DHT22;51672;51.230;-2.322;2022-08-21T18:56:58;21.90;65.80
65078;DHT22;51672;51.230;-2.322;2022-08-21T19:00:55;21.80;67.50
65078;DHT22;51672;51.230;-2.322;2022-08-21T19:04:46;21.60;67.30
65078;DHT22;51672;51.230;-2.322;2022-08-21T19:08:49;21.40;68.00
65078;DHT22;51672;51.230;-2.322;2022-08-21T19:12:42;21.30;67.90
65078;DHT22;51672;51.230;-2.322;2022-08-21T19:16:40;21.10;68.90
65078;DHT22;51672;51.230;-2.322;2022-08-21T19:20:35;20.80;69.10
65078;DHT22;51672;51.230;-2.322;2022-08-21T19:24:34;20.60;70.80
65078;DHT22;51672;51.230;-2.322;2022-08-21T19:28:28;20.40;70.70
65078;DHT22;51672;51.230;-2.322;2022-08-21T19:32:11;20.20;72.10
65078;DHT22;51672;51.230;-2.322;2022-08-21T19:35:53;20.00;74.20
65078;DHT22;51672;51.230;-2.322;2022-08-21T19:39:35;19.80;75.00
65078;DHT22;51672;51.230;-2.322;2022-08-21T19:43:27;19.70;76.10
65078;DHT22;51672;51.230;-2.322;2022-08-21T19:47:14;19.50;76.90
65078;DHT22;51672;51.230;-2.322;2022-08-21T19:50:59;19.40;77.10
65078;DHT22;51672;51.230;-2.322;2022-08-21T19:54:41;19.30;78.60
65078;DHT22;51672;51.230;-2.322;2022-08-21T19:58:43;19.10;79.00
65078;DHT22;51672;51.230;-2.322;2022-08-21T20:02:30;19.00;77.40
65078;DHT22;51672;51.230;-2.322;2022-08-21T20:06:13;18.90;80.90
65078;DHT22;51672;51.230;-2.322;2022-08-21T20:09:58;18.80;81.50
65078;DHT22;51672;51.230;-2.322;2022-08-21T20:13:41;18.70;82.30
65078;DHT22;51672;51.230;-2.322;2022-08-21T20:17:24;18.60;83.30
65078;DHT22;51672;51.230;-2.322;2022-08-21T20:21:07;18.50;83.80
65078;DHT22;51672;51.230;-2.322;2022-08-21T20:24:52;18.40;84.50
65078;DHT22;51672;51.230;-2.322;2022-08-21T20:28:36;18.30;85.70
65078;DHT22;51672;51.230;-2.322;2022-08-21T20:32:20;18.20;86.80
65078;DHT22;51672;51.230;-2.322;2022-08-21T20:36:03;18.20;87.60
65078;DHT22;51672;51.230;-2.322;2022-08-21T20:39:45;18.10;88.10
65078;DHT22;51672;51.230;-2.322;2022-08-21T20:43:28;18.00;88.70
65078;DHT22;51672;51.230;-2.322;2022-08-21T20:47:12;18.00;90.00
65078;DHT22;51672;51.230;-2.322;2022-08-21T20:51:29;17.90;90.40
65078;DHT22;51672;51.230;-2.322;2022-08-21T20:55:14;17.80;88.40
65078;DHT22;51672;51.230;-2.322;2022-08-21T20:59:22;17.70;90.60
65078;DHT22;51672;51.230;-2.322;2022-08-21T21:03:21;17.60;89.90
65078;DHT22;51672;51.230;-2.322;2022-08-21T21:07:15;17.50;91.90
65078;DHT22;51672;51.230;-2.322;2022-08-21T21:11:24;17.40;92.30
65078;DHT22;51672;51.230;-2.322;2022-08-21T21:15:20;17.30;91.50
65078;DHT22;51672;51.230;-2.322;2022-08-21T21:19:27;17.20;92.60
65078;DHT22;51672;51.230;-2.322;2022-08-21T21:23:26;17.20;93.20
65078;DHT22;51672;51.230;-2.322;2022-08-21T21:27:37;17.10;93.70
65078;DHT22;51672;51.230;-2.322;2022-08-21T21:31:23;17.00;92.80
65078;DHT22;51672;51.230;-2.322;2022-08-21T21:35:11;16.90;94.50
65078;DHT22;51672;51.230;-2.322;2022-08-21T21:39:18;16.80;94.90
65078;DHT22;51672;51.230;-2.322;2022-08-21T21:51:41;16.60;94.00
65078;DHT22;51672;51.230;-2.322;2022-08-21T21:56:02;16.60;94.80
65078;DHT22;51672;51.230;-2.322;2022-08-21T22:00:00;16.50;94.40
65078;DHT22;51672;51.230;-2.322;2022-08-21T22:16:32;16.20;95.80
65078;DHT22;51672;51.230;-2.322;2022-08-21T22:20:38;16.10;97.00
65078;DHT22;51672;51.230;-2.322;2022-08-21T22:24:32;16.10;96.20
65078;DHT22;51672;51.230;-2.322;2022-08-21T22:28:22;16.00;96.60
65078;DHT22;51672;51.230;-2.322;2022-08-21T22:36:17;15.90;97.40
65078;DHT22;51672;51.230;-2.322;2022-08-21T22:40:00;15.80;97.50
65078;DHT22;51672;51.230;-2.322;2022-08-21T22:44:03;15.70;97.80
65078;DHT22;51672;51.230;-2.322;2022-08-21T22:47:46;15.70;97.30
65078;DHT22;51672;51.230;-2.322;2022-08-21T22:51:41;15.60;97.60
65078;DHT22;51672;51.230;-2.322;2022-08-21T22:55:51;15.50;97.70
65078;DHT22;51672;51.230;-2.322;2022-08-21T22:59:41;15.50;96.90
65078;DHT22;51672;51.230;-2.322;2022-08-21T23:03:43;15.50;98.40
65078;DHT22;51672;51.230;-2.322;2022-08-21T23:07:41;15.40;97.90
65078;DHT22;51672;51.230;-2.322;2022-08-21T23:11:42;15.30;97.80
65078;DHT22;51672;51.230;-2.322;2022-08-21T23:15:59;15.30;97.90
65078;DHT22;51672;51.230;-2.322;2022-08-21T23:19:52;15.20;98.50
65078;DHT22;51672;51.230;-2.322;2022-08-21T23:23:47;15.10;98.40
65078;DHT22;51672;51.230;-2.322;2022-08-21T23:31:57;15.00;97.40
65078;DHT22;51672;51.230;-2.322;2022-08-21T23:35:56;15.00;98.80
65078;DHT22;51672;51.230;-2.322;2022-08-21T23:56:51;14.70;98.20
